Time;durP1;ratioP1;P1;durP2;ratioP2;P2;SDS_P1;SDS_P2;PMS_P1;PMS_P2;Temp;Humidity;BMP_temperature;BMP_pressure;BME280_temperature;BME280_humidity;BME280_pressure;Samples;Min_cycle;Max_cycle;Signal;HPM_P1;HPM_P2
2023/12/18 00:00:48;;;;;;;64.68;36.17;;;3.70;73.50;;;;;;6343096;22;19999;-72
2023/12/18 00:03:14;;;;;;;63.85;37.00;;;3.70;73.60;;;;;;6343079;22;20007;-72
2023/12/18 00:05:40;;;;;;;63.38;35.95;;;3.70;73.60;;;;;;6343136;22;20010;-72
2023/12/18 00:08:06;;;;;;;54.13;32.17;;;3.60;73.50;;;;;;6343801;22;20250;-72
2023/12/18 00:10:32;;;;;;;55.05;31.45;;;3.60;73.60;;;;;;6343692;22;20381;-72
2023/12/18 00:12:58;;;;;;;57.80;31.23;;;3.60;73.80;;;;;;6343240;22;20014;-72
2023/12/18 00:15:26;;;;;;;54.80;32.75;;;3.60;73.90;;;;;;6343326;22;20107;-72
2023/12/18 00:17:52;;;;;;;52.97;29.90;;;3.60;73.70;;;;;;6343030;22;19995;-72
2023/12/18 00:20:18;;;;;;;57.38;30.95;;;3.60;73.90;;;;;;6343294;22;20052;-72
2023/12/18 00:22:44;;;;;;;62.35;34.40;;;3.60;74.00;;;;;;6342998;22;20070;-72
2023/12/18 00:25:10;;;;;;;57.05;32.53;;;3.60;73.90;;;;;;6343253;22;20006;-72
2023/12/18 00:27:36;;;;;;;60.40;32.63;;;3.60;73.70;;;;;;6342889;22;20338;-73
2023/12/18 00:30:03;;;;;;;49.10;28.90;;;3.60;73.80;;;;;;6315620;22;20017;-72
2023/12/18 00:32:29;;;;;;;62.88;34.13;;;3.60;73.90;;;;;;6343137;22;20021;-72
2023/12/18 00:34:55;;;;;;;58.63;32.55;;;3.60;73.90;;;;;;6342843;22;19999;-72
2023/12/18 00:37:22;;;;;;;58.47;31.95;;;3.50;73.70;;;;;;6342870;22;19999;-72
2023/12/18 00:39:48;;;;;;;61.67;35.05;;;3.50;73.80;;;;;;6342424;22;20048;-72
2023/12/18 00:42:14;;;;;;;66.30;35.63;;;3.50;74.00;;;;;;6342775;22;20085;-72
2023/12/18 00:44:40;;;;;;;60.40;32.47;;;3.50;74.10;;;;;;6342750;22;20009;-72
2023/12/18 00:47:06;;;;;;;62.03;35.17;;;3.50;73.90;;;;;;6343379;22;20018;-72
2023/12/18 00:49:32;;;;;;;63.55;34.83;;;3.50;74.10;;;;;;6342913;22;20011;-72
2023/12/18 00:51:59;;;;;;;65.95;38.00;;;3.50;74.00;;;;;;6343274;22;20049;-72
2023/12/18 00:54:25;;;;;;;63.33;35.80;;;3.50;74.10;;;;;;6342941;22;20003;-72
2023/12/18 00:56:51;;;;;;;53.75;30.13;;;3.50;73.60;;;;;;6342523;22;20396;-72
2023/12/18 00:59:17;;;;;;;63.15;33.47;;;3.40;73.80;;;;;;6342631;22;20011;-72
2023/12/18 01:01:43;;;;;;;57.25;35.55;;;3.40;73.90;;;;;;6342604;22;19999;-72
2023/12/18 01:04:10;;;;;;;57.03;32.72;;;3.40;74.20;;;;;;6342923;22;19999;-72
2023/12/18 01:06:36;;;;;;;54.75;31.58;;;3.40;73.90;;;;;;6342619;22;20396;-71
2023/12/18 01:09:02;;;;;;;66.95;36.38;;;3.40;74.00;;;;;;6342562;22;20005;-72
2023/12/18 01:11:28;;;;;;;58.80;33.53;;;3.30;73.50;;;;;;6342759;22;20002;-72
2023/12/18 01:13:54;;;;;;;59.33;32.65;;;3.30;73.60;;;;;;6342502;22;20014;-72
2023/12/18 01:16:21;;;;;;;57.78;32.47;;;3.30;73.90;;;;;;6343109;22;20003;-72
2023/12/18 01:18:47;;;;;;;56.75;31.58;;;3.30;74.00;;;;;;6342810;22;20006;-72
2023/12/18 01:21:14;;;;;;;55.35;31.67;;;3.20;74.00;;;;;;6342394;22;20070;-72
2023/12/18 01:23:40;;;;;;;54.63;32.83;;;3.20;74.30;;;;;;6342395;22;20003;-72
2023/12/18 01:26:06;;;;;;;50.80;28.42;;;3.20;74.10;;;;;;6315243;22;20026;-72
2023/12/18 01:28:32;;;;;;;59.35;32.22;;;3.30;74.10;;;;;;6343074;22;19998;-72
2023/12/18 01:30:58;;;;;;;56.88;31.25;;;3.30;74.40;;;;;;6342607;22;20004;-72
2023/12/18 01:33:24;;;;;;;53.00;30.88;;;3.30;74.30;;;;;;6342262;22;20013;-72
2023/12/18 01:35:50;;;;;;;62.83;34.47;;;3.20;74.00;;;;;;6342596;22;20310;-72
2023/12/18 01:38:16;;;;;;;55.17;31.30;;;3.30;74.10;;;;;;6342942;22;20065;-72
2023/12/18 01:40:44;;;;;;;50.22;29.85;;;3.30;74.30;;;;;;6341918;22;20064;-73
2023/12/18 01:43:28;;;;;;;54.30;32.38;;;3.30;74.00;;;;;;6342600;22;20002;-72
2023/12/18 01:46:03;;;;;;;55.72;30.58;;;3.30;73.80;;;;;;6342311;22;20041;-72
2023/12/18 01:48:30;;;;;;;58.60;33.00;;;3.20;73.60;;;;;;6342391;22;20003;-72
2023/12/18 01:50:58;;;;;;;48.33;29.67;;;3.20;74.20;;;;;;6342259;22;20015;-72
2023/12/18 01:53:35;;;;;;;54.17;31.48;;;3.20;74.10;;;;;;6314860;22;20003;-72
2023/12/18 01:56:02;;;;;;;50.95;30.13;;;3.20;74.20;;;;;;6315002;22;19999;-72
2023/12/18 01:58:33;;;;;;;52.60;30.35;;;3.20;74.30;;;;;;6342467;22;19999;-72
2023/12/18 02:01:01;;;;;;;53.17;28.58;;;3.20;74.10;;;;;;6342286;22;19995;-72
2023/12/18 02:03:29;;;;;;;46.30;27.00;;;3.20;74.30;;;;;;6342043;22;20417;-72
2023/12/18 02:05:57;;;;;;;49.38;26.65;;;3.20;74.20;;;;;;6342111;22;20003;-72
2023/12/18 02:08:25;;;;;;;54.45;29.38;;;3.20;74.10;;;;;;6342396;22;20006;-72
2023/12/18 02:10:52;;;;;;;50.67;28.27;;;3.20;74.30;;;;;;6342107;22;20052;-72
2023/12/18 02:13:18;;;;;;;44.83;28.25;;;3.20;74.10;;;;;;6342306;22;20072;-72
2023/12/18 02:15:44;;;;;;;51.22;28.77;;;3.20;73.90;;;;;;6342381;22;19995;-72
2023/12/18 02:18:10;;;;;;;46.40;26.42;;;3.20;74.00;;;;;;6341987;22;20052;-72
2023/12/18 02:20:36;;;;;;;52.50;28.63;;;3.10;74.00;;;;;;6314601;22;20086;-72
2023/12/18 02:23:02;;;;;;;55.50;30.30;;;3.20;73.70;;;;;;6341976;22;20332;-72
2023/12/18 02:25:29;;;;;;;57.10;30.92;;;3.10;73.80;;;;;;6342256;22;20037;-72
2023/12/18 02:27:55;;;;;;;46.33;26.65;;;3.10;73.90;;;;;;6341940;22;19998;-72
2023/12/18 02:30:24;;;;;;;49.40;28.08;;;3.10;74.00;;;;;;6342175;22;20006;-72
2023/12/18 02:32:51;;;;;;;46.95;27.48;;;3.10;74.20;;;;;;6342508;22;20026;-72
2023/12/18 02:35:17;;;;;;;44.65;26.88;;;3.10;74.30;;;;;;6342205;22;20090;-72
2023/12/18 02:37:43;;;;;;;49.10;25.63;;;3.00;73.90;;;;;;6341869;22;20009;-72
2023/12/18 02:40:09;;;;;;;51.38;27.73;;;3.00;74.00;;;;;;6341657;22;20011;-72
2023/12/18 02:42:35;;;;;;;49.65;28.30;;;3.00;74.40;;;;;;6342556;22;20052;-72
2023/12/18 02:45:02;;;;;;;51.78;27.73;;;3.00;74.60;;;;;;6341791;22;20003;-72
2023/12/18 02:47:28;;;;;;;51.17;27.42;;;3.00;74.70;;;;;;6341779;22;20072;-72
2023/12/18 02:49:55;;;;;;;45.28;23.73;;;3.00;74.70;;;;;;6341942;22;20002;-72
2023/12/18 02:52:21;;;;;;;49.95;27.20;;;3.00;74.50;;;;;;6341677;22;20026;-72
2023/12/18 02:54:48;;;;;;;48.60;28.20;;;3.00;74.80;;;;;;6342359;22;20062;-72
2023/12/18 02:57:14;;;;;;;45.83;25.63;;;3.10;74.80;;;;;;6342388;22;20009;-72
2023/12/18 02:59:40;;;;;;;44.83;26.23;;;3.10;74.60;;;;;;6342266;22;20061;-72
2023/12/18 03:02:06;;;;;;;48.28;27.35;;;3.10;74.70;;;;;;6341984;22;20078;-72
2023/12/18 03:04:32;;;;;;;48.15;26.77;;;3.10;74.70;;;;;;6341980;22;20373;-72
2023/12/18 03:06:58;;;;;;;41.42;23.63;;;3.10;74.70;;;;;;6341643;22;20002;-72
2023/12/18 03:09:24;;;;;;;53.60;28.65;;;3.10;74.80;;;;;;6341613;22;20006;-72
2023/12/18 03:11:50;;;;;;;43.83;23.17;;;3.10;74.60;;;;;;6342255;22;20069;-72
2023/12/18 03:14:16;;;;;;;53.53;28.48;;;3.10;74.40;;;;;;6341471;22;20002;-72
2023/12/18 03:16:42;;;;;;;53.53;30.40;;;3.10;74.80;;;;;;6341585;22;19994;-72
2023/12/18 03:19:09;;;;;;;51.00;27.48;;;3.10;74.60;;;;;;6341498;22;19998;-72
2023/12/18 03:21:35;;;;;;;40.40;23.70;;;3.10;74.50;;;;;;6313953;22;20323;-72
2023/12/18 03:24:01;;;;;;;45.35;25.88;;;3.10;74.50;;;;;;6342175;22;20003;-72
2023/12/18 03:26:27;;;;;;;41.67;22.90;;;3.20;74.60;;;;;;6341832;22;20003;-72
2023/12/18 03:28:54;;;;;;;44.70;24.77;;;3.20;74.50;;;;;;6341400;22;20013;-72
2023/12/18 03:31:20;;;;;;;47.67;27.85;;;3.20;74.70;;;;;;6341673;22;20011;-72
2023/12/18 03:33:46;;;;;;;48.33;27.63;;;3.20;74.70;;;;;;6341407;22;20103;-72
2023/12/18 03:36:11;;;;;;;40.85;23.50;;;3.20;74.50;;;;;;6341454;22;20016;-72
2023/12/18 03:38:38;;;;;;;49.80;26.73;;;3.20;74.40;;;;;;6342072;22;20372;-72
2023/12/18 03:41:04;;;;;;;39.15;22.20;;;3.10;74.30;;;;;;6313706;22;20042;-72
2023/12/18 03:43:30;;;;;;;45.42;23.20;;;3.10;74.30;;;;;;6341466;22;20064;-72
2023/12/18 03:45:56;;;;;;;43.05;24.60;;;3.10;74.30;;;;;;6341794;22;20041;-72
2023/12/18 03:48:22;;;;;;;43.90;23.83;;;3.10;74.40;;;;;;6341712;22;20006;-72
2023/12/18 03:50:49;;;;;;;47.22;25.83;;;3.10;74.30;;;;;;6341320;22;20003;-72
2023/12/18 03:53:15;;;;;;;44.35;23.58;;;3.10;74.60;;;;;;6341948;22;20280;-72
2023/12/18 03:55:41;;;;;;;38.72;22.77;;;3.10;74.40;;;;;;6341347;22;20461;-72
2023/12/18 03:58:07;;;;;;;50.92;26.90;;;3.10;74.30;;;;;;6341353;22;19999;-72
2023/12/18 04:00:34;;;;;;;43.65;24.40;;;3.10;74.60;;;;;;6341454;22;20270;-72
2023/12/18 04:03:04;;;;;;;44.10;24.23;;;3.10;74.60;;;;;;6341245;22;20029;-72
2023/12/18 04:05:30;;;;;;;41.53;23.70;;;3.10;74.20;;;;;;6341194;22;20404;-72
2023/12/18 04:07:56;;;;;;;42.38;22.85;;;3.00;74.30;;;;;;6341278;22;20404;-72
2023/12/18 04:10:22;;;;;;;38.03;21.80;;;3.00;74.20;;;;;;6341365;22;20002;-72
2023/12/18 04:12:49;;;;;;;40.15;22.52;;;3.10;74.30;;;;;;6341043;22;20003;-72
2023/12/18 04:15:15;;;;;;;39.97;21.60;;;3.00;74.40;;;;;;6341958;22;20420;-72
2023/12/18 04:17:41;;;;;;;39.60;20.77;;;3.00;74.50;;;;;;6341207;22;19999;-72
2023/12/18 04:20:07;;;;;;;38.72;22.55;;;3.00;74.40;;;;;;6341136;22;20461;-72
2023/12/18 04:22:33;;;;;;;40.25;21.85;;;3.00;73.70;;;;;;6341460;22;20007;-72
2023/12/18 04:24:59;;;;;;;37.03;22.10;;;3.00;73.90;;;;;;6341545;22;20292;-72
2023/12/18 04:27:26;;;;;;;36.75;20.67;;;2.90;74.20;;;;;;6341865;22;20006;-72
2023/12/18 04:29:52;;;;;;;32.67;18.02;;;2.90;74.20;;;;;;6341012;22;20007;-72
2023/12/18 04:32:19;;;;;;;33.17;17.73;;;2.90;74.40;;;;;;6342531;22;20341;-72
2023/12/18 04:34:45;;;;;;;30.35;18.00;;;2.90;74.50;;;;;;6342920;22;20293;-72
2023/12/18 04:37:11;;;;;;;39.60;21.30;;;2.90;74.80;;;;;;6343209;22;20028;-72
2023/12/18 04:39:37;;;;;;;36.17;18.80;;;2.90;74.70;;;;;;6343377;22;20362;-72
2023/12/18 04:42:04;;;;;;;41.30;22.20;;;3.00;74.60;;;;;;6342612;22;20120;-71
2023/12/18 04:44:30;;;;;;;32.40;19.17;;;3.00;73.80;;;;;;6343353;22;20006;-72
2023/12/18 04:46:57;;;;;;;33.88;21.50;;;2.90;73.80;;;;;;6343415;22;20003;-72
2023/12/18 04:49:24;;;;;;;35.47;20.63;;;2.90;74.40;;;;;;6342740;22;20037;-72
2023/12/18 04:51:50;;;;;;;39.55;22.73;;;2.90;74.30;;;;;;6342603;22;19999;-72
2023/12/18 04:54:16;;;;;;;35.25;18.65;;;2.90;74.20;;;;;;6343282;22;20082;-72
2023/12/18 04:56:42;;;;;;;31.80;18.20;;;2.90;74.10;;;;;;6343304;22;20027;-72
2023/12/18 04:59:10;;;;;;;35.67;18.88;;;2.90;74.20;;;;;;6343344;22;19999;-72
2023/12/18 05:01:36;;;;;;;32.83;18.30;;;2.90;74.30;;;;;;6342510;22;20081;-72
2023/12/18 05:04:03;;;;;;;33.15;19.23;;;2.90;74.30;;;;;;6343270;22;20029;-72
2023/12/18 05:06:30;;;;;;;35.40;20.15;;;2.90;74.50;;;;;;6342885;22;20064;-72
2023/12/18 05:08:55;;;;;;;34.53;19.27;;;3.00;74.40;;;;;;6342907;22;20026;-72
2023/12/18 05:11:25;;;;;;;38.60;20.80;;;2.90;74.20;;;;;;6342431;22;19999;-72
2023/12/18 05:13:51;;;;;;;41.92;20.25;;;3.00;74.40;;;;;;6342355;22;20003;-72
2023/12/18 05:16:20;;;;;;;38.55;20.90;;;2.90;74.00;;;;;;6342534;22;20017;-71
2023/12/18 05:18:47;;;;;;;35.53;18.20;;;2.90;74.20;;;;;;6343123;22;20026;-71
2023/12/18 05:21:13;;;;;;;33.80;18.33;;;3.00;73.90;;;;;;6342507;22;20044;-72
2023/12/18 05:23:39;;;;;;;37.72;19.88;;;2.90;74.00;;;;;;6342465;22;20092;-72
2023/12/18 05:26:06;;;;;;;32.13;18.45;;;2.80;73.70;;;;;;6342748;22;20003;-72
2023/12/18 05:28:32;;;;;;;32.63;18.48;;;2.80;74.20;;;;;;6342481;22;19998;-72
2023/12/18 05:30:58;;;;;;;38.47;21.25;;;2.80;74.50;;;;;;6342629;22;20007;-72
2023/12/18 05:33:27;;;;;;;40.33;21.15;;;2.90;74.50;;;;;;6342278;22;20006;-72
2023/12/18 05:35:53;;;;;;;36.42;18.15;;;2.90;74.40;;;;;;6342670;22;20025;-72
2023/12/18 05:38:19;;;;;;;34.03;18.02;;;2.80;73.90;;;;;;6342964;22;20463;-72
2023/12/18 05:40:45;;;;;;;34.90;19.20;;;2.80;74.20;;;;;;6341890;22;20038;-72
2023/12/18 05:43:11;;;;;;;36.22;19.83;;;2.80;74.50;;;;;;6342058;22;20025;-72
2023/12/18 05:45:37;;;;;;;33.25;18.02;;;2.80;74.40;;;;;;6342241;22;19999;-72
2023/12/18 05:48:03;;;;;;;35.83;17.88;;;2.80;74.50;;;;;;6342184;22;20074;-72
2023/12/18 05:50:29;;;;;;;39.45;20.33;;;2.80;74.40;;;;;;6342836;22;20002;-72
2023/12/18 05:52:55;;;;;;;36.90;20.80;;;2.80;74.70;;;;;;6342802;22;20003;-72
2023/12/18 05:55:22;;;;;;;41.25;21.48;;;2.80;74.40;;;;;;6342750;22;20060;-72
2023/12/18 05:57:49;;;;;;;40.80;19.77;;;2.80;74.30;;;;;;6342597;22;20019;-72
2023/12/18 06:00:16;;;;;;;40.28;23.63;;;2.90;74.60;;;;;;6342602;22;20009;-72
2023/12/18 06:02:42;;;;;;;43.55;25.88;;;2.90;74.70;;;;;;6342535;22;20009;-72
2023/12/18 06:05:08;;;;;;;47.47;26.67;;;2.90;74.90;;;;;;6342316;22;20003;-72
2023/12/18 06:07:34;;;;;;;44.28;26.15;;;3.00;75.00;;;;;;6342359;22;20006;-72
2023/12/18 06:10:00;;;;;;;52.70;29.35;;;3.00;74.70;;;;;;6342090;22;19998;-72
2023/12/18 06:12:26;;;;;;;45.47;25.83;;;3.00;74.50;;;;;;6341988;22;20086;-72
2023/12/18 06:14:52;;;;;;;54.70;31.75;;;3.00;74.40;;;;;;6314781;22;19998;-72
2023/12/18 06:17:18;;;;;;;54.83;29.17;;;3.00;74.50;;;;;;6342325;22;20024;-71
2023/12/18 06:19:44;;;;;;;47.42;28.15;;;3.00;74.60;;;;;;6341953;22;20061;-72
2023/12/18 06:22:11;;;;;;;42.53;22.13;;;3.00;74.70;;;;;;6342504;22;20048;-71
2023/12/18 06:24:40;;;;;;;34.70;18.92;;;3.00;74.50;;;;;;6314617;22;20002;-72
2023/12/18 06:27:06;;;;;;;34.95;21.45;;;3.00;74.60;;;;;;6342239;22;20023;-72
2023/12/18 06:29:32;;;;;;;44.28;24.90;;;3.00;74.50;;;;;;6342105;22;20025;-72
2023/12/18 06:31:58;;;;;;;42.08;24.95;;;2.90;74.40;;;;;;6342461;22;20377;-72
2023/12/18 06:34:24;;;;;;;39.22;22.02;;;3.00;74.60;;;;;;6314956;22;20042;-71
2023/12/18 06:36:50;;;;;;;34.53;20.50;;;2.90;74.60;;;;;;6341879;22;20002;-72
2023/12/18 06:39:16;;;;;;;34.65;18.55;;;3.00;74.50;;;;;;6341795;22;19999;-72
2023/12/18 06:41:42;;;;;;;35.42;18.60;;;3.00;74.50;;;;;;6342421;22;20003;-71
2023/12/18 06:44:08;;;;;;;38.08;20.80;;;3.00;74.40;;;;;;6342025;22;19999;-71
2023/12/18 06:46:34;;;;;;;36.20;20.10;;;3.00;74.60;;;;;;6342150;22;19995;-71
2023/12/18 06:49:02;;;;;;;37.58;21.73;;;3.00;74.40;;;;;;6342436;22;20053;-73
2023/12/18 06:51:28;;;;;;;35.25;20.25;;;2.90;74.50;;;;;;6342068;22;19998;-71
2023/12/18 06:53:54;;;;;;;31.50;18.48;;;2.90;74.50;;;;;;6341413;22;20300;-70
2023/12/18 06:56:20;;;;;;;39.13;21.25;;;2.90;74.50;;;;;;6342310;22;20280;-70
2023/12/18 06:58:46;;;;;;;38.70;21.67;;;2.90;74.70;;;;;;6341626;22;20014;-74
2023/12/18 07:01:15;;;;;;;42.47;22.60;;;2.90;74.70;;;;;;6341596;22;20066;-71
2023/12/18 07:03:42;;;;;;;43.88;23.05;;;2.90;74.70;;;;;;6342228;22;20327;-72
2023/12/18 07:06:08;;;;;;;40.80;21.80;;;3.00;74.80;;;;;;6314271;22;20056;-72
2023/12/18 07:08:34;;;;;;;40.58;23.15;;;3.00;74.90;;;;;;6341955;22;20002;-71
2023/12/18 07:11:00;;;;;;;37.97;21.58;;;3.00;74.80;;;;;;6341545;22;20125;-71
2023/12/18 07:13:27;;;;;;;42.47;24.60;;;3.10;75.00;;;;;;6341408;22;20048;-71
2023/12/18 07:15:53;;;;;;;39.00;22.00;;;3.10;75.20;;;;;;6341550;22;20331;-71
2023/12/18 07:18:19;;;;;;;37.92;20.75;;;3.10;74.40;;;;;;6341544;22;19995;-73
2023/12/18 07:20:45;;;;;;;35.83;19.98;;;3.10;74.70;;;;;;6314198;22;20003;-71
2023/12/18 07:23:11;;;;;;;38.63;22.80;;;3.10;74.90;;;;;;6341473;22;20080;-70
2023/12/18 07:25:38;;;;;;;36.42;20.77;;;3.10;74.90;;;;;;6341510;22;20396;-72
2023/12/18 07:28:09;;;;;;;37.15;19.88;;;3.20;75.00;;;;;;6314421;22;20081;-68
2023/12/18 07:30:37;;;;;;;34.95;20.67;;;3.20;74.90;;;;;;6341446;22;20411;-70
2023/12/18 07:33:03;;;;;;;29.63;18.25;;;3.30;74.90;;;;;;6341582;22;20007;-73
2023/12/18 07:35:29;;;;;;;34.58;17.88;;;3.30;74.70;;;;;;6341169;22;20007;-72
2023/12/18 07:37:56;;;;;;;31.35;17.40;;;3.30;74.90;;;;;;6342143;22;20003;-72
2023/12/18 07:40:22;;;;;;;34.35;19.30;;;3.40;74.90;;;;;;6341436;22;20028;-72
2023/12/18 07:42:48;;;;;;;34.03;19.52;;;3.40;75.10;;;;;;6342030;22;20037;-71
2023/12/18 07:45:14;;;;;;;31.33;18.98;;;3.40;75.10;;;;;;6341345;22;20007;-73
2023/12/18 07:47:41;;;;;;;32.90;20.00;;;3.50;75.00;;;;;;6341336;22;20003;-71
2023/12/18 07:50:11;;;;;;;40.17;22.63;;;3.60;75.10;;;;;;6342077;22;20002;-70
2023/12/18 07:52:46;;;;;;;35.35;22.45;;;3.60;74.90;;;;;;6341226;22;20003;-70
2023/12/18 07:55:12;;;;;;;42.63;22.60;;;3.70;74.70;;;;;;6313343;22;20015;-71
2023/12/18 07:57:40;;;;;;;28.27;18.40;;;3.70;74.90;;;;;;6341090;22;19999;-69
2023/12/18 08:00:07;;;;;;;37.63;22.35;;;3.80;74.90;;;;;;6283926;22;20026;-67
2023/12/18 08:02:33;;;;;;;37.17;21.83;;;3.80;75.20;;;;;;6341506;22;20392;-69
2023/12/18 08:04:59;;;;;;;41.30;21.98;;;3.90;75.20;;;;;;6341539;22;20064;-73
2023/12/18 08:07:25;;;;;;;36.67;23.88;;;4.00;75.10;;;;;;6342801;22;20384;-70
2023/12/18 08:09:56;;;;;;;43.08;24.45;;;4.10;75.10;;;;;;6342887;22;20022;-70
2023/12/18 08:12:22;;;;;;;41.17;23.92;;;4.20;75.00;;;;;;6343531;22;20013;-71
2023/12/18 08:14:48;;;;;;;43.72;24.15;;;4.30;75.30;;;;;;6343025;22;19999;-74
2023/12/18 08:17:17;;;;;;;38.15;23.48;;;4.40;75.50;;;;;;6342928;22;20411;-71
2023/12/18 08:19:47;;;;;;;42.90;23.70;;;4.50;75.50;;;;;;6342728;22;20095;-71
2023/12/18 08:22:16;;;;;;;45.17;26.08;;;4.60;75.10;;;;;;6342975;22;20007;-70
2023/12/18 08:24:43;;;;;;;51.17;28.15;;;4.60;74.80;;;;;;6343551;22;19998;-70
2023/12/18 08:27:11;;;;;;;42.13;22.67;;;4.80;75.00;;;;;;6342697;22;20346;-70
2023/12/18 08:29:55;;;;;;;39.25;22.50;;;4.80;74.70;;;;;;6253239;22;19999;-72
2023/12/18 08:35:22;;;;;;;44.05;25.38;;;5.00;74.70;;;;;;6311694;22;20018;-74
2023/12/18 08:37:48;;;;;;;47.30;24.90;;;5.10;74.60;;;;;;6312073;22;20044;-71
2023/12/18 08:40:14;;;;;;;41.08;25.42;;;5.20;74.70;;;;;;6311806;22;20061;-72
2023/12/18 08:42:42;;;;;;;42.65;24.25;;;5.30;74.60;;;;;;6312164;22;20003;-72
2023/12/18 08:45:08;;;;;;;44.65;25.25;;;5.40;74.50;;;;;;6311583;22;20023;-72
2023/12/18 08:47:37;;;;;;;47.55;25.63;;;5.50;74.40;;;;;;6312228;22;20011;-73
2023/12/18 08:50:04;;;;;;;44.55;24.85;;;5.60;74.30;;;;;;6311318;22;20007;-73
2023/12/18 08:52:30;;;;;;;37.05;22.35;;;5.70;74.00;;;;;;6311906;22;19999;-72
2023/12/18 08:54:56;;;;;;;34.72;22.02;;;5.80;74.30;;;;;;6311792;22;20000;-71
2023/12/18 08:57:22;;;;;;;37.40;22.65;;;5.90;74.00;;;;;;6311716;22;20027;-72
2023/12/18 08:59:50;;;;;;;37.15;19.98;;;6.00;73.90;;;;;;6311626;22;20121;-70
2023/12/18 09:02:16;;;;;;;38.40;23.10;;;6.10;73.70;;;;;;6311643;22;20030;-71
2023/12/18 09:04:42;;;;;;;32.30;20.88;;;6.20;73.60;;;;;;6311744;22;20001;-71
2023/12/18 09:07:08;;;;;;;29.90;16.58;;;6.20;73.80;;;;;;6311347;22;20023;-72
2023/12/18 09:09:36;;;;;;;31.45;16.55;;;6.30;73.50;;;;;;6311113;22;20013;-68
2023/12/18 09:12:03;;;;;;;29.83;18.33;;;6.40;73.50;;;;;;6312089;22;20094;-75
2023/12/18 09:14:29;;;;;;;27.77;15.88;;;6.60;73.30;;;;;;6342187;22;20459;-75
2023/12/18 09:16:55;;;;;;;24.67;15.38;;;6.70;73.50;;;;;;6342387;22;20044;-74
2023/12/18 09:19:20;;;;;;;24.33;15.45;;;6.80;73.80;;;;;;6342459;22;19994;-73
2023/12/18 09:21:46;;;;;;;26.05;15.63;;;6.90;73.60;;;;;;6342429;22;19995;-74
2023/12/18 09:24:12;;;;;;;28.80;16.73;;;7.10;73.20;;;;;;6342495;22;20056;-74
2023/12/18 09:26:38;;;;;;;27.25;16.10;;;7.20;73.00;;;;;;6341790;22;20007;-74
2023/12/18 09:29:04;;;;;;;27.92;16.38;;;7.30;72.70;;;;;;6342689;22;20074;-74
2023/12/18 09:31:31;;;;;;;27.38;15.00;;;7.40;72.70;;;;;;6342319;22;20003;-74
2023/12/18 09:33:57;;;;;;;30.92;18.40;;;7.50;72.70;;;;;;6342498;22;20030;-74
2023/12/18 09:36:23;;;;;;;32.15;17.10;;;7.60;72.20;;;;;;6342331;22;20048;-74
2023/12/18 09:38:49;;;;;;;30.42;16.88;;;7.70;72.20;;;;;;6343011;22;20023;-75
2023/12/18 09:41:25;;;;;;;34.20;19.77;;;7.80;72.10;;;;;;6342711;22;20002;-74
2023/12/18 09:43:52;;;;;;;29.90;17.80;;;7.90;72.00;;;;;;6342581;22;20025;-74
2023/12/18 09:46:22;;;;;;;27.17;16.27;;;8.10;72.20;;;;;;6343434;22;20005;-74
2023/12/18 09:48:49;;;;;;;27.70;15.75;;;8.20;71.80;;;;;;6350417;22;20013;-74
2023/12/18 09:51:20;;;;;;;25.05;14.50;;;8.30;71.60;;;;;;6351931;22;20018;-75
2023/12/18 09:53:47;;;;;;;27.38;15.95;;;8.40;71.20;;;;;;6351685;22;19998;-74
2023/12/18 09:56:14;;;;;;;24.23;15.95;;;8.50;70.70;;;;;;6343275;22;20132;-74
2023/12/18 09:58:41;;;;;;;23.30;14.38;;;8.60;70.30;;;;;;6342051;22;20090;-74
2023/12/18 10:01:08;;;;;;;26.48;16.15;;;8.70;70.10;;;;;;6342093;22;20020;-74
2023/12/18 10:03:34;;;;;;;32.83;18.08;;;8.90;69.70;;;;;;6342814;22;20048;-74
2023/12/18 10:06:00;;;;;;;44.45;21.65;;;8.90;69.60;;;;;;6342399;22;20003;-74
2023/12/18 10:08:26;;;;;;;39.35;19.98;;;9.00;69.40;;;;;;6342752;22;20003;-74
2023/12/18 10:10:52;;;;;;;52.55;24.25;;;9.10;69.40;;;;;;6342040;22;20338;-74
2023/12/18 10:13:18;;;;;;;45.78;25.08;;;9.20;69.20;;;;;;6341855;22;20424;-74
2023/12/18 10:15:44;;;;;;;34.75;19.00;;;9.30;69.20;;;;;;6341976;22;20003;-74
2023/12/18 10:18:11;;;;;;;37.22;20.92;;;9.40;69.00;;;;;;6342302;22;20007;-74
2023/12/18 10:20:39;;;;;;;28.08;16.55;;;9.50;69.00;;;;;;6342170;22;20006;-74
2023/12/18 10:23:07;;;;;;;27.17;16.27;;;9.70;69.10;;;;;;6342460;22;20052;-74
2023/12/18 10:25:35;;;;;;;25.20;15.52;;;9.80;68.80;;;;;;6341825;22;20003;-74
2023/12/18 10:28:01;;;;;;;24.33;15.02;;;9.90;68.60;;;;;;6341751;22;20060;-74
2023/12/18 10:30:29;;;;;;;24.13;14.65;;;9.90;68.30;;;;;;6342417;22;20013;-74
2023/12/18 10:32:56;;;;;;;27.50;15.63;;;10.00;67.90;;;;;;6341919;22;20006;-74
2023/12/18 10:35:23;;;;;;;24.38;13.20;;;10.10;67.90;;;;;;6341870;22;19999;-74
2023/12/18 10:37:54;;;;;;;24.60;13.23;;;10.20;67.70;;;;;;6342543;22;20381;-74
2023/12/18 10:40:23;;;;;;;22.30;13.82;;;10.30;67.40;;;;;;6342197;22;19999;-74
2023/12/18 10:43:12;;;;;;;19.65;11.60;;;10.40;67.10;;;;;;6342315;22;20452;-74
2023/12/18 10:45:39;;;;;;;20.27;12.02;;;10.50;66.90;;;;;;6342473;22;20030;-74
2023/12/18 10:48:08;;;;;;;18.63;11.27;;;10.60;66.80;;;;;;6342321;22;20137;-74
2023/12/18 10:50:36;;;;;;;20.38;11.82;;;10.70;66.50;;;;;;6341891;22;20010;-74
2023/12/18 10:53:04;;;;;;;19.00;11.02;;;10.70;66.20;;;;;;6341389;22;20369;-74
2023/12/18 10:55:31;;;;;;;21.00;11.98;;;10.80;66.00;;;;;;6342349;22;20066;-74
2023/12/18 10:58:00;;;;;;;18.00;10.20;;;10.90;66.20;;;;;;6341656;22;20089;-74
2023/12/18 11:00:28;;;;;;;19.05;11.48;;;11.00;66.00;;;;;;6341618;22;20059;-74
2023/12/18 11:02:56;;;;;;;20.25;11.48;;;11.10;65.70;;;;;;6341520;22;20014;-74
2023/12/18 11:05:23;;;;;;;17.77;10.70;;;11.10;65.60;;;;;;6341528;22;20388;-74
2023/12/18 11:07:50;;;;;;;17.13;10.05;;;11.20;65.40;;;;;;6341983;22;20073;-74
2023/12/18 11:10:17;;;;;;;16.50;10.05;;;11.30;65.30;;;;;;6342263;22;19999;-75
2023/12/18 11:12:44;;;;;;;17.60;10.80;;;11.30;64.90;;;;;;6340872;22;20089;-74
2023/12/18 11:15:32;;;;;;;18.20;10.98;;;11.40;64.60;;;;;;6341850;22;20293;-74
2023/12/18 11:18:13;;;;;;;22.13;11.85;;;11.50;64.40;;;;;;6342216;22;19999;-74
2023/12/18 11:20:41;;;;;;;17.85;10.95;;;11.50;63.90;;;;;;6341382;22;19999;-74
2023/12/18 11:23:10;;;;;;;19.70;11.80;;;11.60;63.90;;;;;;6341549;22;20014;-74
2023/12/18 11:25:37;;;;;;;20.92;11.93;;;11.70;63.50;;;;;;6341402;22;20003;-74
2023/12/18 11:28:05;;;;;;;21.13;11.45;;;11.80;62.80;;;;;;6341438;22;20021;-74
2023/12/18 11:30:37;;;;;;;17.02;11.27;;;11.80;62.70;;;;;;6314302;22;19999;-74
2023/12/18 11:33:05;;;;;;;18.88;11.60;;;11.90;63.30;;;;;;6342253;22;20006;-74
2023/12/18 11:35:33;;;;;;;19.13;10.82;;;11.90;63.00;;;;;;6341423;22;20041;-74
2023/12/18 11:38:12;;;;;;;20.13;12.85;;;12.00;63.40;;;;;;6342047;22;20384;-74
2023/12/18 11:40:50;;;;;;;18.40;11.57;;;12.10;62.90;;;;;;6341939;22;20357;-74
2023/12/18 11:43:38;;;;;;;17.13;10.38;;;12.20;62.40;;;;;;6343405;22;20013;-74
2023/12/18 11:46:09;;;;;;;16.90;10.77;;;12.20;62.10;;;;;;6343623;22;20030;-75
2023/12/18 11:48:40;;;;;;;18.00;10.93;;;12.30;62.00;;;;;;6343394;22;20006;-74
2023/12/18 11:51:06;;;;;;;17.58;9.65;;;12.40;61.90;;;;;;6343615;22;20064;-74
2023/12/18 11:53:34;;;;;;;15.73;9.82;;;12.40;61.20;;;;;;6343210;22;20023;-74
2023/12/18 11:56:41;;;;;;;16.83;10.30;;;12.40;61.20;;;;;;6343883;22;20023;-74
2023/12/18 11:59:10;;;;;;;15.80;9.88;;;12.50;61.60;;;;;;6316077;22;20003;-74
2023/12/18 12:01:39;;;;;;;15.18;10.50;;;12.60;61.30;;;;;;6315897;22;20003;-74
2023/12/18 12:04:06;;;;;;;18.23;11.23;;;12.70;61.60;;;;;;6343219;22;20329;-74
2023/12/18 12:06:33;;;;;;;16.23;10.35;;;12.70;60.90;;;;;;6343732;22;20060;-74
2023/12/18 12:08:59;;;;;;;16.45;10.45;;;12.80;60.90;;;;;;6343426;22;20003;-74
2023/12/18 12:11:26;;;;;;;18.10;11.00;;;12.90;61.20;;;;;;6342556;22;20052;-74
2023/12/18 12:13:55;;;;;;;16.90;10.52;;;12.90;61.00;;;;;;6343696;22;20403;-74
2023/12/18 12:16:21;;;;;;;20.10;12.48;;;13.00;61.20;;;;;;6343019;22;19995;-74
2023/12/18 12:18:50;;;;;;;20.35;12.65;;;13.00;61.00;;;;;;6343236;22;20022;-74
2023/12/18 12:21:17;;;;;;;18.40;11.00;;;13.10;60.90;;;;;;6342794;22;19995;-74
2023/12/18 12:23:49;;;;;;;17.02;10.80;;;13.20;60.60;;;;;;6342811;22;20010;-74
2023/12/18 12:26:19;;;;;;;18.20;11.02;;;13.20;60.80;;;;;;6343539;22;19999;-74
2023/12/18 12:28:48;;;;;;;15.45;10.07;;;13.30;60.40;;;;;;6342915;22;19998;-74
2023/12/18 12:31:19;;;;;;;16.25;11.18;;;13.30;60.10;;;;;;6315565;22;20030;-74
2023/12/18 12:33:50;;;;;;;17.50;11.27;;;13.40;60.50;;;;;;6343084;22;20007;-74
2023/12/18 12:36:21;;;;;;;18.00;10.90;;;13.40;60.00;;;;;;6343178;22;19995;-74
2023/12/18 12:38:48;;;;;;;17.70;11.52;;;13.40;60.10;;;;;;6342552;22;19998;-74